sensor_id;sensor_type;location;lat;lon;timestamp;temperature;humidity
32769;DHT22;23049;54.304;8.826;2022-11-15T00:00:23;5.40;99.90
32769;DHT22;23049;54.304;8.826;2022-11-15T00:02:49;5.30;99.90
32769;DHT22;23049;54.304;8.826;2022-11-15T00:05:15;5.30;99.90
32769;DHT22;23049;54.304;8.826;2022-11-15T00:07:40;5.30;99.90
32769;DHT22;23049;54.304;8.826;2022-11-15T00:10:06;5.30;99.90
32769;DHT22;23049;54.304;8.826;2022-11-15T00:12:31;5.40;99.90
32769;DHT22;23049;54.304;8.826;2022-11-15T00:14:57;5.40;99.90
32769;DHT22;23049;54.304;8.826;2022-11-15T00:17:22;5.40;99.90
32769;DHT22;23049;54.304;8.826;2022-11-15T00:19:48;5.30;99.90
32769;DHT22;23049;54.304;8.826;2022-11-15T00:22:14;5.40;99.90
32769;DHT22;23049;54.304;8.826;2022-11-15T00:24:40;5.50;99.90
32769;DHT22;23049;54.304;8.826;2022-11-15T00:27:05;5.70;99.90
32769;DHT22;23049;54.304;8.826;2022-11-15T00:29:31;5.80;99.90
32769;DHT22;23049;54.304;8.826;2022-11-15T00:31:56;5.90;99.90
32769;DHT22;23049;54.304;8.826;2022-11-15T00:34:22;5.90;99.90
32769;DHT22;23049;54.304;8.826;2022-11-15T00:36:47;5.80;99.90
32769;DHT22;23049;54.304;8.826;2022-11-15T00:39:12;5.90;99.90
32769;DHT22;23049;54.304;8.826;2022-11-15T00:41:38;5.80;99.90
32769;DHT22;23049;54.304;8.826;2022-11-15T00:44:03;5.80;99.90
32769;DHT22;23049;54.304;8.826;2022-11-15T00:46:29;5.90;99.90
32769;DHT22;23049;54.304;8.826;2022-11-15T00:48:54;5.80;99.90
32769;DHT22;23049;54.304;8.826;2022-11-15T00:51:20;5.90;99.90
32769;DHT22;23049;54.304;8.826;2022-11-15T00:53:45;6.00;99.90
32769;DHT22;23049;54.304;8.826;2022-11-15T00:56:11;6.10;99.90
32769;DHT22;23049;54.304;8.826;2022-11-15T00:58:36;6.20;99.90
32769;DHT22;23049;54.304;8.826;2022-11-15T01:01:12;6.10;99.90
32769;DHT22;23049;54.304;8.826;2022-11-15T01:03:38;6.20;99.90
32769;DHT22;23049;54.304;8.826;2022-11-15T01:06:04;6.30;99.90
32769;DHT22;23049;54.304;8.826;2022-11-15T01:08:29;6.40;99.90
32769;DHT22;23049;54.304;8.826;2022-11-15T01:10:59;6.50;99.90
32769;DHT22;23049;54.304;8.826;2022-11-15T01:13:25;6.60;99.90
32769;DHT22;23049;54.304;8.826;2022-11-15T01:15:50;6.70;99.90
32769;DHT22;23049;54.304;8.826;2022-11-15T01:18:16;6.70;99.90
32769;DHT22;23049;54.304;8.826;2022-11-15T01:20:41;6.70;99.90
32769;DHT22;23049;54.304;8.826;2022-11-15T01:23:07;6.80;99.90
32769;DHT22;23049;54.304;8.826;2022-11-15T01:25:33;6.70;99.90
32769;DHT22;23049;54.304;8.826;2022-11-15T01:27:58;6.70;99.90
32769;DHT22;23049;54.304;8.826;2022-11-15T01:30:24;6.60;99.90
32769;DHT22;23049;54.304;8.826;2022-11-15T01:32:49;6.60;99.90
32769;DHT22;23049;54.304;8.826;2022-11-15T01:35:15;6.60;99.90
32769;DHT22;23049;54.304;8.826;2022-11-15T01:37:40;6.60;99.90
32769;DHT22;23049;54.304;8.826;2022-11-15T01:40:06;6.60;99.90
32769;DHT22;23049;54.304;8.826;2022-11-15T01:42:31;6.60;99.90
32769;DHT22;23049;54.304;8.826;2022-11-15T01:44:57;6.80;99.90
32769;DHT22;23049;54.304;8.826;2022-11-15T01:47:31;6.90;99.90
32769;DHT22;23049;54.304;8.826;2022-11-15T01:49:59;7.00;99.90
32769;DHT22;23049;54.304;8.826;2022-11-15T01:52:26;7.10;99.90
32769;DHT22;23049;54.304;8.826;2022-11-15T01:54:58;7.10;99.90
32769;DHT22;23049;54.304;8.826;2022-11-15T01:57:24;7.20;99.90
32769;DHT22;23049;54.304;8.826;2022-11-15T01:59:49;7.30;99.90
32769;DHT22;23049;54.304;8.826;2022-11-15T02:02:15;7.30;99.90
32769;DHT22;23049;54.304;8.826;2022-11-15T02:04:41;7.30;99.90
32769;DHT22;23049;54.304;8.826;2022-11-15T02:07:08;7.30;99.90
32769;DHT22;23049;54.304;8.826;2022-11-15T02:09:35;7.40;99.90
32769;DHT22;23049;54.304;8.826;2022-11-15T02:12:01;7.40;99.90
32769;DHT22;23049;54.304;8.826;2022-11-15T02:14:26;7.50;99.90
32769;DHT22;23049;54.304;8.826;2022-11-15T02:29:48;7.70;99.90
32769;DHT22;23049;54.304;8.826;2022-11-15T02:32:25;7.70;99.90
32769;DHT22;23049;54.304;8.826;2022-11-15T02:43:10;7.70;99.90
32769;DHT22;23049;54.304;8.826;2022-11-15T02:45:56;7.70;99.90
32769;DHT22;23049;54.304;8.826;2022-11-15T02:48:25;7.60;99.90
32769;DHT22;23049;54.304;8.826;2022-11-15T02:50:51;7.60;99.90
32769;DHT22;23049;54.304;8.826;2022-11-15T02:53:16;7.50;99.90
32769;DHT22;23049;54.304;8.826;2022-11-15T02:55:46;7.50;99.90
32769;DHT22;23049;54.304;8.826;2022-11-15T03:00:47;7.40;99.90
32769;DHT22;23049;54.304;8.826;2022-11-15T03:13:36;7.10;99.90
32769;DHT22;23049;54.304;8.826;2022-11-15T03:16:05;7.10;99.90
32769;DHT22;23049;54.304;8.826;2022-11-15T03:19:14;7.00;99.90
32769;DHT22;23049;54.304;8.826;2022-11-15T03:21:20;7.10;99.90
32769;DHT22;23049;54.304;8.826;2022-11-15T03:23:47;7.00;99.90
32769;DHT22;23049;54.304;8.826;2022-11-15T03:26:14;6.90;99.90
32769;DHT22;23049;54.304;8.826;2022-11-15T03:28:45;6.90;99.90
32769;DHT22;23049;54.304;8.826;2022-11-15T03:31:12;6.90;99.90
32769;DHT22;23049;54.304;8.826;2022-11-15T03:33:57;6.90;99.90
32769;DHT22;23049;54.304;8.826;2022-11-15T03:36:23;6.90;99.90
32769;DHT22;23049;54.304;8.826;2022-11-15T03:38:49;6.90;99.90
32769;DHT22;23049;54.304;8.826;2022-11-15T03:41:17;6.90;99.90
32769;DHT22;23049;54.304;8.826;2022-11-15T03:43:52;6.90;99.90
32769;DHT22;23049;54.304;8.826;2022-11-15T03:46:23;6.90;99.90
32769;DHT22;23049;54.304;8.826;2022-11-15T03:48:50;6.90;99.90
32769;DHT22;23049;54.304;8.826;2022-11-15T03:51:17;6.80;99.90
32769;DHT22;23049;54.304;8.826;2022-11-15T03:53:42;6.80;99.90
32769;DHT22;23049;54.304;8.826;2022-11-15T03:56:08;6.80;99.90
32769;DHT22;23049;54.304;8.826;2022-11-15T03:58:33;6.80;99.90
32769;DHT22;23049;54.304;8.826;2022-11-15T04:00:59;6.80;99.90
32769;DHT22;23049;54.304;8.826;2022-11-15T04:03:25;6.80;99.90
32769;DHT22;23049;54.304;8.826;2022-11-15T04:05:50;6.80;99.90
32769;DHT22;23049;54.304;8.826;2022-11-15T04:08:16;6.80;99.90
32769;DHT22;23049;54.304;8.826;2022-11-15T04:10:41;6.80;99.90
32769;DHT22;23049;54.304;8.826;2022-11-15T04:13:07;6.80;99.90
32769;DHT22;23049;54.304;8.826;2022-11-15T04:15:32;6.80;99.90
32769;DHT22;23049;54.304;8.826;2022-11-15T04:17:58;6.80;99.90
32769;DHT22;23049;54.304;8.826;2022-11-15T04:20:25;6.80;99.90
32769;DHT22;23049;54.304;8.826;2022-11-15T04:23:11;6.80;99.90
32769;DHT22;23049;54.304;8.826;2022-11-15T04:25:56;6.80;99.90
32769;DHT22;23049;54.304;8.826;2022-11-15T04:28:22;6.80;99.90
32769;DHT22;23049;54.304;8.826;2022-11-15T04:30:47;6.50;99.90
32769;DHT22;23049;54.304;8.826;2022-11-15T04:33:13;6.40;99.90
32769;DHT22;23049;54.304;8.826;2022-11-15T04:35:39;6.50;99.90
32769;DHT22;23049;54.304;8.826;2022-11-15T04:38:05;6.40;99.90
32769;DHT22;23049;54.304;8.826;2022-11-15T04:40:31;6.40;99.90
32769;DHT22;23049;54.304;8.826;2022-11-15T04:42:56;6.50;99.90
32769;DHT22;23049;54.304;8.826;2022-11-15T04:45:22;6.50;99.90
32769;DHT22;23049;54.304;8.826;2022-11-15T04:47:47;6.60;99.90
32769;DHT22;23049;54.304;8.826;2022-11-15T04:50:13;6.60;99.90
32769;DHT22;23049;54.304;8.826;2022-11-15T04:52:40;6.60;99.90
32769;DHT22;23049;54.304;8.826;2022-11-15T04:55:06;6.70;99.90
32769;DHT22;23049;54.304;8.826;2022-11-15T04:57:31;6.80;99.90
32769;DHT22;23049;54.304;8.826;2022-11-15T04:59:57;6.80;99.90
32769;DHT22;23049;54.304;8.826;2022-11-15T05:02:22;6.80;99.90
32769;DHT22;23049;54.304;8.826;2022-11-15T05:04:48;6.80;99.90
32769;DHT22;23049;54.304;8.826;2022-11-15T05:07:13;6.80;99.90
32769;DHT22;23049;54.304;8.826;2022-11-15T05:09:39;6.80;99.90
32769;DHT22;23049;54.304;8.826;2022-11-15T05:12:04;6.90;99.90
32769;DHT22;23049;54.304;8.826;2022-11-15T05:14:30;6.90;99.90
32769;DHT22;23049;54.304;8.826;2022-11-15T05:16:55;7.00;99.90
32769;DHT22;23049;54.304;8.826;2022-11-15T05:19:21;7.10;99.90
32769;DHT22;23049;54.304;8.826;2022-11-15T05:21:46;7.00;99.90
32769;DHT22;23049;54.304;8.826;2022-11-15T05:24:12;7.10;99.90
32769;DHT22;23049;54.304;8.826;2022-11-15T05:26:37;7.20;99.90
32769;DHT22;23049;54.304;8.826;2022-11-15T05:29:03;7.20;99.90
32769;DHT22;23049;54.304;8.826;2022-11-15T05:31:28;7.30;99.90
32769;DHT22;23049;54.304;8.826;2022-11-15T05:33:55;7.30;99.90
32769;DHT22;23049;54.304;8.826;2022-11-15T05:36:35;7.40;99.90
32769;DHT22;23049;54.304;8.826;2022-11-15T05:39:02;7.40;99.90
32769;DHT22;23049;54.304;8.826;2022-11-15T05:41:32;7.50;99.90
32769;DHT22;23049;54.304;8.826;2022-11-15T05:43:58;7.60;99.90
32769;DHT22;23049;54.304;8.826;2022-11-15T05:46:24;7.60;99.90
32769;DHT22;23049;54.304;8.826;2022-11-15T05:48:50;7.60;99.90
32769;DHT22;23049;54.304;8.826;2022-11-15T05:51:17;7.70;99.90
32769;DHT22;23049;54.304;8.826;2022-11-15T05:53:43;7.70;99.90
32769;DHT22;23049;54.304;8.826;2022-11-15T05:56:09;7.70;99.90
32769;DHT22;23049;54.304;8.826;2022-11-15T05:58:35;7.70;99.90
32769;DHT22;23049;54.304;8.826;2022-11-15T06:01:01;7.70;99.90
32769;DHT22;23049;54.304;8.826;2022-11-15T06:03:27;7.70;99.90
32769;DHT22;23049;54.304;8.826;2022-11-15T06:05:52;7.80;99.90
32769;DHT22;23049;54.304;8.826;2022-11-15T06:08:18;7.80;99.90
32769;DHT22;23049;54.304;8.826;2022-11-15T06:10:43;7.80;99.90
32769;DHT22;23049;54.304;8.826;2022-11-15T06:13:09;7.90;99.90
32769;DHT22;23049;54.304;8.826;2022-11-15T06:15:34;7.90;99.90
32769;DHT22;23049;54.304;8.826;2022-11-15T06:18:00;8.00;99.90
32769;DHT22;23049;54.304;8.826;2022-11-15T06:20:26;8.00;99.90
32769;DHT22;23049;54.304;8.826;2022-11-15T06:23:02;8.00;99.90
32769;DHT22;23049;54.304;8.826;2022-11-15T06:25:28;8.10;99.90
32769;DHT22;23049;54.304;8.826;2022-11-15T06:27:54;8.10;99.90
32769;DHT22;23049;54.304;8.826;2022-11-15T06:30:21;8.10;99.90
32769;DHT22;23049;54.304;8.826;2022-11-15T06:32:46;8.10;99.90
32769;DHT22;23049;54.304;8.826;2022-11-15T06:35:12;8.10;99.90
32769;DHT22;23049;54.304;8.826;2022-11-15T06:37:37;8.10;99.90
32769;DHT22;23049;54.304;8.826;2022-11-15T06:40:03;8.10;99.90
32769;DHT22;23049;54.304;8.826;2022-11-15T06:42:29;8.20;99.90
32769;DHT22;23049;54.304;8.826;2022-11-15T06:44:54;8.20;99.90
32769;DHT22;23049;54.304;8.826;2022-11-15T06:47:20;8.20;99.90
32769;DHT22;23049;54.304;8.826;2022-11-15T06:49:45;8.20;99.90
32769;DHT22;23049;54.304;8.826;2022-11-15T06:52:11;8.30;99.90
32769;DHT22;23049;54.304;8.826;2022-11-15T06:54:36;8.30;99.90
32769;DHT22;23049;54.304;8.826;2022-11-15T06:57:03;8.30;99.90
32769;DHT22;23049;54.304;8.826;2022-11-15T06:59:29;8.40;99.90
32769;DHT22;23049;54.304;8.826;2022-11-15T07:01:54;8.40;99.90
32769;DHT22;23049;54.304;8.826;2022-11-15T07:04:20;8.50;99.90
32769;DHT22;23049;54.304;8.826;2022-11-15T07:06:48;8.50;99.90
32769;DHT22;23049;54.304;8.826;2022-11-15T07:09:14;8.60;99.90
32769;DHT22;23049;54.304;8.826;2022-11-15T07:11:39;8.60;99.90
32769;DHT22;23049;54.304;8.826;2022-11-15T07:14:05;8.70;99.90
32769;DHT22;23049;54.304;8.826;2022-11-15T07:16:30;8.70;99.90
32769;DHT22;23049;54.304;8.826;2022-11-15T07:18:56;8.80;99.90
32769;DHT22;23049;54.304;8.826;2022-11-15T07:21:22;8.80;99.90
32769;DHT22;23049;54.304;8.826;2022-11-15T07:23:47;8.90;99.90
32769;DHT22;23049;54.304;8.826;2022-11-15T07:26:13;8.90;99.90
32769;DHT22;23049;54.304;8.826;2022-11-15T07:28:38;9.00;99.90
32769;DHT22;23049;54.304;8.826;2022-11-15T07:31:04;9.00;99.90
32769;DHT22;23049;54.304;8.826;2022-11-15T07:33:30;9.00;99.90
32769;DHT22;23049;54.304;8.826;2022-11-15T07:35:58;9.00;99.90
32769;DHT22;23049;54.304;8.826;2022-11-15T07:38:23;9.00;99.90
32769;DHT22;23049;54.304;8.826;2022-11-15T07:40:55;9.10;99.90
32769;DHT22;23049;54.304;8.826;2022-11-15T07:43:20;9.10;99.90
32769;DHT22;23049;54.304;8.826;2022-11-15T07:45:46;9.10;99.90
32769;DHT22;23049;54.304;8.826;2022-11-15T07:48:11;9.20;99.90
32769;DHT22;23049;54.304;8.826;2022-11-15T07:50:40;9.20;99.90
32769;DHT22;23049;54.304;8.826;2022-11-15T07:53:05;9.20;99.90
32769;DHT22;23049;54.304;8.826;2022-11-15T07:55:31;9.30;99.90
32769;DHT22;23049;54.304;8.826;2022-11-15T07:58:00;9.20;99.90
32769;DHT22;23049;54.304;8.826;2022-11-15T08:00:25;9.30;99.90
32769;DHT22;23049;54.304;8.826;2022-11-15T08:02:51;9.40;99.90
32769;DHT22;23049;54.304;8.826;2022-11-15T08:05:16;9.40;99.90
32769;DHT22;23049;54.304;8.826;2022-11-15T08:07:42;9.30;99.90
32769;DHT22;23049;54.304;8.826;2022-11-15T08:10:07;9.40;99.90
32769;DHT22;23049;54.304;8.826;2022-11-15T08:12:33;9.40;99.90
32769;DHT22;23049;54.304;8.826;2022-11-15T08:14:59;9.50;99.90
32769;DHT22;23049;54.304;8.826;2022-11-15T08:17:25;9.60;99.90
32769;DHT22;23049;54.304;8.826;2022-11-15T08:19:50;9.60;99.90
32769;DHT22;23049;54.304;8.826;2022-11-15T08:22:16;9.60;99.90
32769;DHT22;23049;54.304;8.826;2022-11-15T08:24:41;9.70;99.90
32769;DHT22;23049;54.304;8.826;2022-11-15T08:27:07;9.70;99.90
32769;DHT22;23049;54.304;8.826;2022-11-15T08:29:43;9.70;99.90
32769;DHT22;23049;54.304;8.826;2022-11-15T08:32:09;9.70;99.90
32769;DHT22;23049;54.304;8.826;2022-11-15T08:34:35;9.70;99.90
32769;DHT22;23049;54.304;8.826;2022-11-15T08:37:00;9.80;99.90
32769;DHT22;23049;54.304;8.826;2022-11-15T08:39:26;9.90;99.90
32769;DHT22;23049;54.304;8.826;2022-11-15T08:41:51;9.90;99.90
32769;DHT22;23049;54.304;8.826;2022-11-15T08:44:17;9.90;99.90
32769;DHT22;23049;54.304;8.826;2022-11-15T08:46:45;10.00;99.90
32769;DHT22;23049;54.304;8.826;2022-11-15T08:49:10;10.00;99.90
32769;DHT22;23049;54.304;8.826;2022-11-15T08:51:36;10.10;99.90
32769;DHT22;23049;54.304;8.826;2022-11-15T08:54:01;10.10;99.90
32769;DHT22;23049;54.304;8.826;2022-11-15T08:56:27;10.10;99.90
32769;DHT22;23049;54.304;8.826;2022-11-15T08:58:52;10.20;99.90
32769;DHT22;23049;54.304;8.826;2022-11-15T09:01:18;10.20;99.90
32769;DHT22;23049;54.304;8.826;2022-11-15T09:03:44;10.20;99.90
32769;DHT22;23049;54.304;8.826;2022-11-15T09:06:09;10.30;99.90
32769;DHT22;23049;54.304;8.826;2022-11-15T09:08:35;10.40;99.90
32769;DHT22;23049;54.304;8.826;2022-11-15T09:11:04;10.40;99.90
32769;DHT22;23049;54.304;8.826;2022-11-15T09:13:30;10.50;99.90
32769;DHT22;23049;54.304;8.826;2022-11-15T09:15:58;10.50;99.90
32769;DHT22;23049;54.304;8.826;2022-11-15T09:18:24;10.50;99.90
32769;DHT22;23049;54.304;8.826;2022-11-15T09:20:50;10.60;99.90
32769;DHT22;23049;54.304;8.826;2022-11-15T09:23:15;10.60;99.90
32769;DHT22;23049;54.304;8.826;2022-11-15T09:25:41;10.60;99.90
32769;DHT22;23049;54.304;8.826;2022-11-15T09:28:07;10.70;99.90
32769;DHT22;23049;54.304;8.826;2022-11-15T09:30:32;10.60;99.90
32769;DHT22;23049;54.304;8.826;2022-11-15T09:32:58;10.60;99.90
32769;DHT22;23049;54.304;8.826;2022-11-15T09:35:24;10.60;99.90
32769;DHT22;23049;54.304;8.826;2022-11-15T09:37:49;10.60;99.90
32769;DHT22;23049;54.304;8.826;2022-11-15T09:40:15;10.60;99.90
32769;DHT22;23049;54.304;8.826;2022-11-15T09:45:35;10.70;99.90
32769;DHT22;23049;54.304;8.826;2022-11-15T09:52:57;10.70;99.90
32769;DHT22;23049;54.304;8.826;2022-11-15T09:55:24;10.70;99.90
32769;DHT22;23049;54.304;8.826;2022-11-15T09:57:55;10.70;99.90
32769;DHT22;23049;54.304;8.826;2022-11-15T10:00:29;10.70;99.90
32769;DHT22;23049;54.304;8.826;2022-11-15T10:05:38;10.80;99.90
32769;DHT22;23049;54.304;8.826;2022-11-15T10:08:40;10.80;99.90
32769;DHT22;23049;54.304;8.826;2022-11-15T10:11:07;10.90;99.90
32769;DHT22;23049;54.304;8.826;2022-11-15T10:13:40;10.90;99.90
32769;DHT22;23049;54.304;8.826;2022-11-15T10:16:28;10.80;99.90
32769;DHT22;23049;54.304;8.826;2022-11-15T10:19:13;10.80;99.90
32769;DHT22;23049;54.304;8.826;2022-11-15T10:24:10;10.80;99.90
32769;DHT22;23049;54.304;8.826;2022-11-15T10:26:36;10.90;99.90
32769;DHT22;23049;54.304;8.826;2022-11-15T10:29:01;10.90;99.90
32769;DHT22;23049;54.304;8.826;2022-11-15T10:31:28;10.90;99.90
32769;DHT22;23049;54.304;8.826;2022-11-15T10:34:10;10.90;99.90
32769;DHT22;23049;54.304;8.826;2022-11-15T10:36:37;10.90;99.90
32769;DHT22;23049;54.304;8.826;2022-11-15T10:39:02;11.00;99.90
32769;DHT22;23049;54.304;8.826;2022-11-15T10:44:17;11.10;99.90
32769;DHT22;23049;54.304;8.826;2022-11-15T10:46:44;11.10;99.90
32769;DHT22;23049;54.304;8.826;2022-11-15T10:49:15;11.20;99.90
32769;DHT22;23049;54.304;8.826;2022-11-15T10:51:44;11.20;99.90
32769;DHT22;23049;54.304;8.826;2022-11-15T10:54:10;11.20;99.90
32769;DHT22;23049;54.304;8.826;2022-11-15T10:56:38;11.30;99.90
32769;DHT22;23049;54.304;8.826;2022-11-15T10:59:04;11.30;99.90
32769;DHT22;23049;54.304;8.826;2022-11-15T11:01:30;11.30;99.90
32769;DHT22;23049;54.304;8.826;2022-11-15T11:04:07;11.20;99.90
32769;DHT22;23049;54.304;8.826;2022-11-15T11:09:33;11.20;99.90
32769;DHT22;23049;54.304;8.826;2022-11-15T11:11:59;11.20;99.90
32769;DHT22;23049;54.304;8.826;2022-11-15T11:14:26;11.20;99.90
32769;DHT22;23049;54.304;8.826;2022-11-15T11:19:44;11.10;99.90
32769;DHT22;23049;54.304;8.826;2022-11-15T11:27:42;11.20;99.90
32769;DHT22;23049;54.304;8.826;2022-11-15T11:30:14;11.20;99.90
32769;DHT22;23049;54.304;8.826;2022-11-15T11:35:34;11.20;99.90
32769;DHT22;23049;54.304;8.826;2022-11-15T11:45:30;10.90;99.90
32769;DHT22;23049;54.304;8.826;2022-11-15T11:48:12;10.90;99.90
32769;DHT22;23049;54.304;8.826;2022-11-15T11:50:39;11.00;99.90
32769;DHT22;23049;54.304;8.826;2022-11-15T11:55:46;10.90;99.90
32769;DHT22;23049;54.304;8.826;2022-11-15T12:00:51;10.80;99.90
32769;DHT22;23049;54.304;8.826;2022-11-15T12:05:44;10.70;99.90
32769;DHT22;23049;54.304;8.826;2022-11-15T12:10:53;10.80;99.90
32769;DHT22;23049;54.304;8.826;2022-11-15T12:13:22;10.70;99.90
32769;DHT22;23049;54.304;8.826;2022-11-15T12:15:52;10.60;99.90
32769;DHT22;23049;54.304;8.826;2022-11-15T12:18:19;10.60;99.90
32769;DHT22;23049;54.304;8.826;2022-11-15T12:20:58;10.60;99.90
32769;DHT22;23049;54.304;8.826;2022-11-15T12:23:30;10.70;99.90
32769;DHT22;23049;54.304;8.826;2022-11-15T12:28:34;10.70;99.90
32769;DHT22;23049;54.304;8.826;2022-11-15T12:31:02;10.70;99.90
32769;DHT22;23049;54.304;8.826;2022-11-15T12:33:39;10.80;99.90
32769;DHT22;23049;54.304;8.826;2022-11-15T12:36:08;10.90;99.90
32769;DHT22;23049;54.304;8.826;2022-11-15T12:41:19;11.00;99.90
32769;DHT22;23049;54.304;8.826;2022-11-15T12:43:45;11.00;99.90
32769;DHT22;23049;54.304;8.826;2022-11-15T12:46:21;11.00;99.90
32769;DHT22;23049;54.304;8.826;2022-11-15T12:48:49;11.10;99.90
32769;DHT22;23049;54.304;8.826;2022-11-15T12:51:15;11.10;99.90
32769;DHT22;23049;54.304;8.826;2022-11-15T12:53:40;11.10;99.90
32769;DHT22;23049;54.304;8.826;2022-11-15T13:01:09;11.20;99.90
32769;DHT22;23049;54.304;8.826;2022-11-15T13:03:35;11.20;99.90
32769;DHT22;23049;54.304;8.826;2022-11-15T13:06:02;11.20;99.90
32769;DHT22;23049;54.304;8.826;2022-11-15T13:08:38;11.10;99.90
32769;DHT22;23049;54.304;8.826;2022-11-15T13:14:34;11.10;99.90
32769;DHT22;23049;54.304;8.826;2022-11-15T13:16:56;11.00;99.90
32769;DHT22;23049;54.304;8.826;2022-11-15T13:19:23;11.00;99.90
32769;DHT22;23049;54.304;8.826;2022-11-15T13:21:49;11.00;99.90
32769;DHT22;23049;54.304;8.826;2022-11-15T13:24:37;11.10;99.90
32769;DHT22;23049;54.304;8.826;2022-11-15T13:27:10;11.10;99.90
32769;DHT22;23049;54.304;8.826;2022-11-15T13:29:36;11.10;99.90
32769;DHT22;23049;54.304;8.826;2022-11-15T13:32:01;11.10;99.90
32769;DHT22;23049;54.304;8.826;2022-11-15T13:34:29;11.10;99.90
32769;DHT22;23049;54.304;8.826;2022-11-15T13:36:58;11.10;99.90
32769;DHT22;23049;54.304;8.826;2022-11-15T13:39:28;11.00;99.90
32769;DHT22;23049;54.304;8.826;2022-11-15T13:41:54;11.10;99.90
32769;DHT22;23049;54.304;8.826;2022-11-15T13:44:24;11.20;99.90
32769;DHT22;23049;54.304;8.826;2022-11-15T13:47:00;11.10;99.90
32769;DHT22;23049;54.304;8.826;2022-11-15T13:49:30;11.20;99.90
32769;DHT22;23049;54.304;8.826;2022-11-15T13:51:56;11.20;99.90
32769;DHT22;23049;54.304;8.826;2022-11-15T13:56:55;11.10;99.90
32769;DHT22;23049;54.304;8.826;2022-11-15T13:59:26;11.00;99.90
32769;DHT22;23049;54.304;8.826;2022-11-15T14:01:53;11.00;99.90
32769;DHT22;23049;54.304;8.826;2022-11-15T14:04:20;11.00;99.90
32769;DHT22;23049;54.304;8.826;2022-11-15T14:06:47;11.00;99.90
32769;DHT22;23049;54.304;8.826;2022-11-15T14:11:55;11.10;99.90
32769;DHT22;23049;54.304;8.826;2022-11-15T14:14:22;11.10;99.90
32769;DHT22;23049;54.304;8.826;2022-11-15T14:16:49;11.10;99.90
32769;DHT22;23049;54.304;8.826;2022-11-15T14:24:31;11.10;99.90
32769;DHT22;23049;54.304;8.826;2022-11-15T14:26:56;11.10;99.90
32769;DHT22;23049;54.304;8.826;2022-11-15T14:31:47;11.10;99.90
32769;DHT22;23049;54.304;8.826;2022-11-15T14:34:13;11.10;99.90
32769;DHT22;23049;54.304;8.826;2022-11-15T14:36:38;11.10;99.90
32769;DHT22;23049;54.304;8.826;2022-11-15T14:39:04;11.10;99.90
32769;DHT22;23049;54.304;8.826;2022-11-15T14:41:33;11.10;99.90
32769;DHT22;23049;54.304;8.826;2022-11-15T14:43:59;11.10;99.90
32769;DHT22;23049;54.304;8.826;2022-11-15T14:46:25;11.00;99.90
32769;DHT22;23049;54.304;8.826;2022-11-15T14:48:50;11.00;99.90
32769;DHT22;23049;54.304;8.826;2022-11-15T14:51:17;11.00;99.90
32769;DHT22;23049;54.304;8.826;2022-11-15T14:53:43;11.00;99.90
32769;DHT22;23049;54.304;8.826;2022-11-15T14:56:09;11.00;99.90
32769;DHT22;23049;54.304;8.826;2022-11-15T14:58:35;11.00;99.90
32769;DHT22;23049;54.304;8.826;2022-11-15T15:01:01;11.00;99.90
32769;DHT22;23049;54.304;8.826;2022-11-15T15:03:27;11.00;99.90
32769;DHT22;23049;54.304;8.826;2022-11-15T15:05:53;11.00;99.90
32769;DHT22;23049;54.304;8.826;2022-11-15T15:08:19;10.90;99.90
32769;DHT22;23049;54.304;8.826;2022-11-15T15:10:45;10.90;99.90
32769;DHT22;23049;54.304;8.826;2022-11-15T15:13:20;10.90;99.90
32769;DHT22;23049;54.304;8.826;2022-11-15T15:15:46;10.90;99.90
32769;DHT22;23049;54.304;8.826;2022-11-15T15:18:12;11.00;99.90
32769;DHT22;23049;54.304;8.826;2022-11-15T15:20:38;11.00;99.90
32769;DHT22;23049;54.304;8.826;2022-11-15T15:23:04;11.00;99.90
32769;DHT22;23049;54.304;8.826;2022-11-15T15:25:31;10.80;99.90
32769;DHT22;23049;54.304;8.826;2022-11-15T15:27:58;10.80;99.90
32769;DHT22;23049;54.304;8.826;2022-11-15T15:30:24;10.70;99.90
32769;DHT22;23049;54.304;8.826;2022-11-15T15:32:50;10.70;99.90
32769;DHT22;23049;54.304;8.826;2022-11-15T15:35:16;10.60;99.90
32769;DHT22;23049;54.304;8.826;2022-11-15T15:37:42;10.70;99.90
32769;DHT22;23049;54.304;8.826;2022-11-15T15:40:15;10.60;99.90
32769;DHT22;23049;54.304;8.826;2022-11-15T15:42:41;10.60;99.90
32769;DHT22;23049;54.304;8.826;2022-11-15T15:45:07;10.60;99.90
32769;DHT22;23049;54.304;8.826;2022-11-15T15:47:33;10.60;99.90
32769;DHT22;23049;54.304;8.826;2022-11-15T15:49:59;10.60;99.90
32769;DHT22;23049;54.304;8.826;2022-11-15T15:52:24;10.60;99.90
32769;DHT22;23049;54.304;8.826;2022-11-15T15:54:50;10.60;99.90
32769;DHT22;23049;54.304;8.826;2022-11-15T15:57:15;10.60;99.90
32769;DHT22;23049;54.304;8.826;2022-11-15T15:59:41;10.60;99.90
32769;DHT22;23049;54.304;8.826;2022-11-15T16:02:13;10.60;99.90
32769;DHT22;23049;54.304;8.826;2022-11-15T16:04:39;10.60;99.90
32769;DHT22;23049;54.304;8.826;2022-11-15T16:07:04;10.50;99.90
32769;DHT22;23049;54.304;8.826;2022-11-15T16:09:30;10.50;99.90
32769;DHT22;23049;54.304;8.826;2022-11-15T16:12:14;10.50;99.90
32769;DHT22;23049;54.304;8.826;2022-11-15T16:14:41;10.50;99.90
32769;DHT22;23049;54.304;8.826;2022-11-15T16:17:09;10.50;99.90
32769;DHT22;23049;54.304;8.826;2022-11-15T16:19:35;10.50;99.90
32769;DHT22;23049;54.304;8.826;2022-11-15T16:22:00;10.50;99.90
32769;DHT22;23049;54.304;8.826;2022-11-15T16:24:26;10.40;99.90
32769;DHT22;23049;54.304;8.826;2022-11-15T16:26:51;10.40;99.90
32769;DHT22;23049;54.304;8.826;2022-11-15T16:29:17;10.50;99.90
32769;DHT22;23049;54.304;8.826;2022-11-15T16:31:42;10.40;99.90
32769;DHT22;23049;54.304;8.826;2022-11-15T16:34:08;10.40;99.90
32769;DHT22;23049;54.304;8.826;2022-11-15T16:36:34;10.40;99.90
32769;DHT22;23049;54.304;8.826;2022-11-15T16:39:00;10.40;99.90
32769;DHT22;23049;54.304;8.826;2022-11-15T16:41:29;10.30;99.90
32769;DHT22;23049;54.304;8.826;2022-11-15T16:43:54;10.30;99.90
32769;DHT22;23049;54.304;8.826;2022-11-15T16:46:21;10.30;99.90
32769;DHT22;23049;54.304;8.826;2022-11-15T16:48:47;10.40;99.90
32769;DHT22;23049;54.304;8.826;2022-11-15T16:51:13;10.40;99.90
32769;DHT22;23049;54.304;8.826;2022-11-15T16:53:38;10.40;99.90
32769;DHT22;23049;54.304;8.826;2022-11-15T16:56:11;10.50;99.90
32769;DHT22;23049;54.304;8.826;2022-11-15T16:58:39;10.40;99.90
32769;DHT22;23049;54.304;8.826;2022-11-15T17:01:04;10.30;99.90
32769;DHT22;23049;54.304;8.826;2022-11-15T17:03:30;10.30;99.90
32769;DHT22;23049;54.304;8.826;2022-11-15T17:05:59;10.20;99.90
32769;DHT22;23049;54.304;8.826;2022-11-15T17:08:24;10.20;99.90
32769;DHT22;23049;54.304;8.826;2022-11-15T17:10:50;10.20;99.90
32769;DHT22;23049;54.304;8.826;2022-11-15T17:13:15;10.10;99.90
32769;DHT22;23049;54.304;8.826;2022-11-15T17:15:41;10.10;99.90
32769;DHT22;23049;54.304;8.826;2022-11-15T17:18:09;10.10;99.90
32769;DHT22;23049;54.304;8.826;2022-11-15T17:20:35;10.00;99.90
32769;DHT22;23049;54.304;8.826;2022-11-15T17:23:00;10.00;99.90
32769;DHT22;23049;54.304;8.826;2022-11-15T17:25:25;10.00;99.90
32769;DHT22;23049;54.304;8.826;2022-11-15T17:27:51;10.00;99.90